Time;durP1;ratioP1;P1;durP2;ratioP2;P2;SDS_P1;SDS_P2;PMS_P1;PMS_P2;Temp;Humidity;BMP_temperature;BMP_pressure;BME280_temperature;BME280_humidity;BME280_pressure;Samples;Min_cycle;Max_cycle;Signal;HPM_P1;HPM_P2
2022/02/12 00:00:28;;;;;;;3.10;1.50;;;2.10;54.10;;;;;;5092470;28;20515;-60
2022/02/12 00:02:56;;;;;;;3.78;1.50;;;2.00;52.60;;;;;;5096075;28;20783;-60
2022/02/12 00:05:25;;;;;;;6.00;1.67;;;2.00;53.20;;;;;;5092255;28;20510;-60
2022/02/12 00:07:54;;;;;;;5.00;1.60;;;1.90;57.40;;;;;;5094140;28;20414;-60
2022/02/12 00:10:24;;;;;;;3.50;2.10;;;1.90;71.50;;;;;;5093326;28;20418;-60
2022/02/12 00:12:51;;;;;;;4.15;1.80;;;1.80;88.30;;;;;;5094236;28;20501;-61
2022/02/12 00:15:18;;;;;;;4.45;1.50;;;1.80;92.90;;;;;;5092876;28;20461;-60
2022/02/12 00:17:46;;;;;;;5.15;2.10;;;1.80;90.70;;;;;;5094665;28;20509;-60
2022/02/12 00:20:14;;;;;;;4.20;1.90;;;1.70;97.00;;;;;;5094088;28;20482;-61
2022/02/12 00:22:41;;;;;;;3.78;1.50;;;1.70;99.90;;;;;;5095155;28;20432;-61
2022/02/12 00:25:11;;;;;;;5.03;1.73;;;1.70;99.90;;;;;;5095309;28;20460;-60
2022/02/12 00:27:38;;;;;;;5.35;1.50;;;1.70;97.20;;;;;;5092885;28;20515;-60
2022/02/12 00:30:07;;;;;;;4.85;2.05;;;1.60;98.60;;;;;;5094815;28;20505;-61
2022/02/12 00:32:34;;;;;;;2.90;1.80;;;1.60;99.90;;;;;;5091483;28;20469;-60
2022/02/12 00:35:01;;;;;;;3.22;1.80;;;1.60;99.90;;;;;;5094039;28;20487;-61
2022/02/12 00:37:29;;;;;;;5.00;1.88;;;1.60;99.90;;;;;;5093869;28;20430;-60
2022/02/12 00:39:56;;;;;;;4.18;1.70;;;1.60;99.90;;;;;;5094906;28;20778;-60
2022/02/12 00:42:24;;;;;;;4.03;1.90;;;1.60;99.90;;;;;;5094301;28;20876;-61
2022/02/12 00:44:52;;;;;;;3.47;1.60;;;1.70;99.90;;;;;;5094968;28;20501;-60
2022/02/12 00:47:19;;;;;;;3.00;1.50;;;1.70;99.90;;;;;;5093671;28;20430;-60
2022/02/12 00:49:46;;;;;;;4.70;1.98;;;1.60;99.90;;;;;;5094873;28;20892;-61
2022/02/12 00:52:13;;;;;;;6.05;2.30;;;1.60;99.90;;;;;;5094164;28;20453;-60
2022/02/12 00:54:40;;;;;;;5.73;4.03;;;1.50;99.90;;;;;;5095067;28;20434;-61
2022/02/12 00:57:07;;;;;;;7.38;3.22;;;1.40;99.90;;;;;;5092215;28;20437;-61
2022/02/12 00:59:36;;;;;;;6.88;3.80;;;1.30;99.90;;;;;;5092342;28;20861;-60
2022/02/12 01:02:03;;;;;;;6.83;3.80;;;1.30;99.90;;;;;;5092237;28;20544;-61
2022/02/12 01:04:30;;;;;;;7.15;4.63;;;1.30;99.90;;;;;;5093597;28;20498;-60
2022/02/12 01:06:57;;;;;;;12.47;4.90;;;1.30;99.90;;;;;;5092600;28;20606;-60
2022/02/12 01:09:24;;;;;;;7.90;4.70;;;1.30;99.90;;;;;;5093713;28;20590;-60
2022/02/12 01:11:51;;;;;;;11.13;4.43;;;1.30;99.90;;;;;;5092902;28;20893;-61
2022/02/12 01:14:18;;;;;;;6.30;5.13;;;1.40;99.90;;;;;;5094190;28;20792;-60
2022/02/12 01:16:46;;;;;;;7.57;4.77;;;1.40;99.90;;;;;;5092918;28;20983;-60
2022/02/12 01:19:13;;;;;;;7.78;4.50;;;1.30;99.90;;;;;;5094334;28;20454;-60
2022/02/12 01:21:40;;;;;;;8.55;6.03;;;1.20;99.90;;;;;;5093734;28;20433;-61
2022/02/12 01:24:07;;;;;;;7.85;5.00;;;1.10;99.90;;;;;;5093711;28;20418;-60
2022/02/12 01:26:34;;;;;;;9.20;4.80;;;1.20;99.90;;;;;;5091301;28;20521;-61
2022/02/12 01:29:01;;;;;;;7.38;3.90;;;1.20;99.90;;;;;;5093390;28;20528;-61
2022/02/12 01:31:28;;;;;;;7.35;4.25;;;1.10;99.90;;;;;;5091877;28;20520;-60
2022/02/12 01:33:56;;;;;;;6.07;3.53;;;1.10;99.90;;;;;;5093563;28;20446;-60
2022/02/12 01:36:23;;;;;;;6.88;3.80;;;1.10;99.90;;;;;;5092996;28;20517;-60
2022/02/12 01:38:50;;;;;;;5.63;3.00;;;1.00;99.90;;;;;;5093932;28;20416;-60
2022/02/12 01:41:17;;;;;;;9.10;4.03;;;1.00;99.90;;;;;;5093262;28;20524;-61
2022/02/12 01:43:44;;;;;;;6.97;4.20;;;1.00;99.90;;;;;;5093023;28;20533;-60
2022/02/12 01:46:11;;;;;;;7.90;3.73;;;1.10;99.90;;;;;;5094236;28;20915;-60
2022/02/12 01:48:41;;;;;;;4.90;3.33;;;1.10;99.90;;;;;;5096942;28;20533;-60
2022/02/12 01:51:10;;;;;;;5.57;3.80;;;1.10;99.90;;;;;;5094778;28;20498;-61
2022/02/12 01:53:38;;;;;;;7.28;4.47;;;1.20;99.90;;;;;;5095616;28;20424;-60
2022/02/12 01:56:05;;;;;;;6.22;3.58;;;1.10;99.90;;;;;;5093325;28;20520;-60
2022/02/12 01:58:32;;;;;;;6.85;3.67;;;1.10;99.90;;;;;;5094720;28;20420;-61
2022/02/12 02:00:59;;;;;;;6.47;3.65;;;1.10;99.90;;;;;;5094802;28;20426;-61
2022/02/12 02:03:26;;;;;;;4.82;3.20;;;1.10;99.90;;;;;;5096224;28;20508;-61
2022/02/12 02:05:55;;;;;;;5.93;3.75;;;1.10;99.90;;;;;;5095051;28;20588;-60
2022/02/12 02:08:24;;;;;;;7.25;4.25;;;1.10;99.90;;;;;;5096516;28;20422;-61
2022/02/12 02:10:53;;;;;;;5.70;3.20;;;1.10;99.90;;;;;;5095074;28;20520;-61
2022/02/12 02:13:25;;;;;;;6.78;3.53;;;1.10;99.90;;;;;;5097207;28;20414;-60
2022/02/12 02:15:52;;;;;;;4.65;2.70;;;1.10;99.90;;;;;;5095352;28;20526;-60
2022/02/12 02:18:19;;;;;;;7.95;3.60;;;1.10;99.90;;;;;;5097406;28;20504;-60
2022/02/12 02:20:46;;;;;;;6.55;3.50;;;1.10;99.90;;;;;;5096160;28;20892;-60
2022/02/12 02:23:15;;;;;;;7.05;4.05;;;1.20;99.90;;;;;;5097576;28;20429;-60
2022/02/12 02:25:42;;;;;;;8.32;4.60;;;1.20;99.90;;;;;;5095912;28;20780;-60
2022/02/12 02:28:09;;;;;;;5.50;3.30;;;1.20;99.90;;;;;;5097655;28;20428;-61
2022/02/12 02:30:36;;;;;;;7.65;4.72;;;1.10;99.90;;;;;;5096850;28;20430;-60
2022/02/12 02:33:03;;;;;;;6.00;3.67;;;1.00;99.90;;;;;;5097522;28;20424;-60
2022/02/12 02:35:30;;;;;;;8.07;4.47;;;1.00;99.90;;;;;;5095641;28;20436;-61
2022/02/12 02:38:06;;;;;;;7.50;4.50;;;1.00;99.90;;;;;;5096755;28;20497;-60
2022/02/12 02:40:35;;;;;;;7.32;4.05;;;0.90;99.90;;;;;;5095872;28;20699;-60
2022/02/12 02:43:02;;;;;;;7.32;4.13;;;0.80;99.90;;;;;;5095052;28;20505;-60
2022/02/12 02:45:29;;;;;;;7.47;4.35;;;0.80;99.90;;;;;;5094087;28;20780;-60
2022/02/12 02:47:59;;;;;;;6.97;3.90;;;0.80;99.90;;;;;;5096602;28;20797;-60
2022/02/12 02:56:02;;;;;;;7.13;4.03;;;0.70;99.90;;;;;;5094973;28;20478;-60
2022/02/12 02:58:33;;;;;;;7.03;4.03;;;0.80;99.90;;;;;;5095951;28;20727;-60
2022/02/12 03:01:00;;;;;;;4.88;2.72;;;0.80;99.90;;;;;;5095128;28;20822;-60
2022/02/12 03:03:27;;;;;;;7.27;4.10;;;0.90;99.90;;;;;;5096796;28;20512;-60
2022/02/12 03:05:54;;;;;;;6.05;3.58;;;0.80;99.90;;;;;;5095116;28;20475;-60
2022/02/12 03:08:21;;;;;;;4.47;3.45;;;0.70;99.90;;;;;;5096199;28;20871;-60
2022/02/12 03:10:48;;;;;;;4.90;3.10;;;0.70;99.90;;;;;;5094523;28;20513;-61
2022/02/12 03:13:16;;;;;;;7.10;3.40;;;0.70;99.90;;;;;;5096426;28;20458;-60
2022/02/12 03:15:43;;;;;;;6.68;3.92;;;0.70;99.90;;;;;;5094348;28;20714;-61
2022/02/12 03:18:10;;;;;;;6.57;3.70;;;0.70;99.90;;;;;;5094229;28;20461;-60
2022/02/12 03:20:37;;;;;;;5.33;3.20;;;0.70;99.90;;;;;;5093866;28;20605;-60
2022/02/12 03:23:04;;;;;;;5.88;2.55;;;0.70;99.90;;;;;;5096025;28;20513;-61
2022/02/12 03:25:32;;;;;;;6.18;3.38;;;0.70;99.90;;;;;;5095224;28;20893;-60
2022/02/12 03:28:01;;;;;;;5.30;2.90;;;0.70;99.90;;;;;;5094477;28;20508;-60
2022/02/12 03:30:32;;;;;;;6.88;3.50;;;0.60;99.90;;;;;;5094050;28;20509;-60
2022/02/12 03:33:01;;;;;;;8.32;3.10;;;0.60;99.90;;;;;;5095571;28;20868;-61
2022/02/12 03:35:28;;;;;;;7.40;3.25;;;0.70;99.90;;;;;;5095834;28;20517;-60
2022/02/12 03:38:05;;;;;;;6.55;3.25;;;0.90;99.90;;;;;;5096180;28;20811;-61
2022/02/12 03:40:32;;;;;;;5.07;3.40;;;0.80;99.90;;;;;;5096362;28;20508;-61
2022/02/12 03:42:59;;;;;;;6.15;3.00;;;0.60;99.90;;;;;;5096288;28;20509;-61
2022/02/12 03:45:26;;;;;;;5.75;2.72;;;0.60;99.90;;;;;;5096282;28;20550;-60
2022/02/12 03:47:54;;;;;;;7.55;3.33;;;0.50;99.90;;;;;;5096170;28;20508;-61
2022/02/12 03:50:21;;;;;;;9.17;3.50;;;0.50;99.90;;;;;;5096098;28;20509;-60
2022/02/12 03:52:49;;;;;;;6.50;4.30;;;0.40;99.90;;;;;;5096151;28;20795;-60
2022/02/12 03:55:17;;;;;;;6.70;3.50;;;0.30;99.90;;;;;;5096076;28;20430;-60
2022/02/12 03:57:44;;;;;;;4.87;3.30;;;0.30;99.90;;;;;;5095249;28;20504;-60
2022/02/12 04:00:12;;;;;;;3.95;2.90;;;0.30;99.90;;;;;;5095151;28;20461;-60
2022/02/12 04:02:39;;;;;;;4.28;2.45;;;0.40;99.90;;;;;;5095780;28;20425;-61
2022/02/12 04:05:10;;;;;;;4.82;2.80;;;0.40;99.90;;;;;;5094597;28;20740;-61
2022/02/12 04:07:38;;;;;;;5.43;3.20;;;0.50;99.90;;;;;;5093132;28;20499;-60
2022/02/12 04:10:07;;;;;;;5.47;2.90;;;0.50;99.90;;;;;;5094667;28;20491;-60
2022/02/12 04:12:34;;;;;;;4.03;2.97;;;0.60;99.90;;;;;;5094800;28;20431;-60
2022/02/12 04:15:01;;;;;;;5.95;3.10;;;0.50;99.90;;;;;;5095319;28;20512;-60
2022/02/12 04:17:34;;;;;;;4.05;2.58;;;0.40;99.90;;;;;;5096151;28;20418;-60
2022/02/12 04:20:02;;;;;;;5.32;3.20;;;0.40;99.90;;;;;;5095764;28;20831;-60
2022/02/12 04:22:31;;;;;;;7.07;5.07;;;0.50;99.90;;;;;;5096157;28;20503;-61
2022/02/12 04:24:58;;;;;;;9.98;5.43;;;0.50;99.90;;;;;;5095361;28;20418;-60
2022/02/12 04:27:25;;;;;;;11.95;6.55;;;0.40;99.90;;;;;;5095498;28;20453;-60
2022/02/12 04:29:52;;;;;;;13.07;7.03;;;0.20;99.90;;;;;;5095629;28;20864;-60
2022/02/12 04:32:20;;;;;;;11.77;7.32;;;0.30;99.90;;;;;;5095430;28;20483;-60
2022/02/12 04:34:47;;;;;;;12.73;6.93;;;0.30;99.90;;;;;;5095577;28;20429;-60
2022/02/12 04:37:14;;;;;;;14.63;6.70;;;0.20;99.90;;;;;;5095467;28;20528;-60
2022/02/12 04:39:42;;;;;;;13.65;7.30;;;0.20;99.90;;;;;;5091947;28;20475;-60
2022/02/12 04:42:11;;;;;;;12.88;7.60;;;0.10;99.90;;;;;;5092227;28;20417;-60
2022/02/12 04:44:39;;;;;;;9.23;6.50;;;0.20;99.90;;;;;;5092706;28;20422;-60
2022/02/12 04:47:06;;;;;;;13.07;7.00;;;0.30;99.90;;;;;;5094018;28;20440;-61
2022/02/12 04:49:33;;;;;;;10.13;6.03;;;0.40;99.90;;;;;;5093996;28;20438;-60
2022/02/12 04:51:59;;;;;;;11.25;6.57;;;0.40;99.90;;;;;;5092836;28;20540;-60
2022/02/12 04:54:26;;;;;;;10.57;6.85;;;0.30;99.90;;;;;;5094045;28;20504;-60
2022/02/12 04:56:55;;;;;;;11.38;6.75;;;0.10;99.90;;;;;;5094306;28;20465;-61
2022/02/12 04:59:21;;;;;;;9.70;6.18;;;0.00;99.90;;;;;;5093801;28;20506;-60
2022/02/12 05:01:50;;;;;;;11.32;6.15;;;0.00;99.90;;;;;;5092793;28;20432;-60
2022/02/12 05:04:17;;;;;;;11.70;6.75;;;0.10;99.90;;;;;;5093221;28;20512;-61
2022/02/12 05:06:44;;;;;;;11.45;6.80;;;0.30;99.90;;;;;;5094822;28;20449;-60
2022/02/12 05:09:11;;;;;;;11.15;6.97;;;0.30;99.90;;;;;;5095169;28;20791;-60
2022/02/12 05:11:38;;;;;;;11.07;6.85;;;0.20;99.90;;;;;;5094075;28;20429;-60
2022/02/12 05:14:06;;;;;;;11.80;7.32;;;0.10;99.90;;;;;;5093914;28;20798;-60
2022/02/12 05:16:33;;;;;;;9.95;6.50;;;0.00;99.90;;;;;;5095351;28;20520;-60
2022/02/12 05:19:00;;;;;;;10.60;6.20;;;0.00;99.90;;;;;;5096147;28;20516;-61
2022/02/12 05:21:27;;;;;;;9.55;6.35;;;0.10;99.90;;;;;;5099421;28;20508;-60
2022/02/12 05:23:54;;;;;;;12.07;6.63;;;0.10;99.90;;;;;;5097896;28;20457;-61
2022/02/12 05:26:21;;;;;;;13.13;6.95;;;0.20;99.90;;;;;;5097374;28;20464;-60
2022/02/12 05:28:48;;;;;;;12.18;6.90;;;0.10;99.90;;;;;;5097624;28;20753;-60
2022/02/12 05:31:17;;;;;;;14.10;6.90;;;0.10;99.90;;;;;;5096804;28;20464;-60
2022/02/12 05:33:44;;;;;;;9.60;6.20;;;0.00;99.90;;;;;;5096923;28;20513;-62
2022/02/12 05:36:12;;;;;;;12.30;5.50;;;0.00;99.90;;;;;;5096857;28;20528;-61
2022/02/12 05:38:40;;;;;;;10.68;6.55;;;0.20;99.90;;;;;;5096277;28;20719;-61
2022/02/12 05:41:07;;;;;;;12.95;6.60;;;0.20;99.90;;;;;;5096078;28;20852;-61
2022/02/12 05:43:34;;;;;;;8.63;5.93;;;0.20;99.90;;;;;;5097163;28;20769;-61
2022/02/12 05:46:02;;;;;;;10.43;5.90;;;0.00;99.90;;;;;;5097884;28;20524;-61
2022/02/12 05:48:31;;;;;;;10.45;6.15;;;-0.10;99.90;;;;;;5098081;28;20780;-61
2022/02/12 05:50:58;;;;;;;10.35;6.05;;;-0.10;99.90;;;;;;5098906;28;20494;-61
2022/02/12 05:53:25;;;;;;;14.25;6.32;;;0.00;99.90;;;;;;5098523;28;20494;-61
2022/02/12 05:55:52;;;;;;;12.15;7.00;;;0.00;99.90;;;;;;5096698;28;20540;-61
2022/02/12 05:58:19;;;;;;;10.88;6.07;;;0.10;99.90;;;;;;5096840;28;20500;-61
2022/02/12 06:00:46;;;;;;;12.90;6.43;;;0.00;99.90;;;;;;5096672;28;20849;-61
2022/02/12 06:03:13;;;;;;;11.27;6.72;;;-0.10;99.90;;;;;;5096947;28;20429;-61
2022/02/12 06:05:41;;;;;;;13.70;6.80;;;0.00;99.90;;;;;;5096264;28;21885;-60
2022/02/12 06:08:08;;;;;;;12.80;6.78;;;0.10;99.90;;;;;;5096705;28;20506;-61
2022/02/12 06:10:35;;;;;;;12.63;6.60;;;-0.10;99.90;;;;;;5096573;28;20486;-61
2022/02/12 06:13:02;;;;;;;13.15;6.30;;;-0.20;99.90;;;;;;5098144;28;20788;-61
2022/02/12 06:15:29;;;;;;;9.70;5.13;;;-0.20;99.90;;;;;;5097895;28;20418;-60
2022/02/12 06:17:56;;;;;;;9.75;5.60;;;-0.20;99.90;;;;;;5097320;28;20779;-61
2022/02/12 06:20:23;;;;;;;10.55;6.00;;;-0.10;99.90;;;;;;5097256;28;20424;-60
2022/02/12 06:22:51;;;;;;;13.18;6.20;;;-0.10;99.90;;;;;;5097322;28;20504;-61
2022/02/12 06:25:18;;;;;;;9.95;6.13;;;-0.10;99.90;;;;;;5097232;28;20414;-60
2022/02/12 06:27:46;;;;;;;15.00;6.67;;;0.00;99.90;;;;;;5096792;28;20547;-60
2022/02/12 06:30:13;;;;;;;11.00;5.93;;;0.10;99.90;;;;;;5096050;28;20418;-61
2022/02/12 06:32:40;;;;;;;11.13;5.40;;;0.00;99.90;;;;;;5096514;28;20969;-60
2022/02/12 06:35:07;;;;;;;13.40;6.60;;;0.00;99.90;;;;;;5097061;28;20457;-61
2022/02/12 06:37:36;;;;;;;8.80;6.22;;;-0.20;99.90;;;;;;5097009;28;20858;-61
2022/02/12 06:40:05;;;;;;;13.20;7.10;;;-0.20;99.90;;;;;;5097487;28;20893;-62
2022/02/12 06:42:32;;;;;;;11.43;6.43;;;-0.10;99.90;;;;;;5096964;28;20898;-61
2022/02/12 06:44:58;;;;;;;13.13;6.72;;;0.00;99.90;;;;;;5081296;28;20520;-59
2022/02/12 06:47:25;;;;;;;13.05;7.53;;;0.00;99.90;;;;;;5087193;28;20510;-61
2022/02/12 06:49:52;;;;;;;10.13;5.78;;;0.10;99.90;;;;;;5093310;28;20510;-61
2022/02/12 06:52:19;;;;;;;11.80;7.13;;;0.20;99.90;;;;;;5092567;28;20791;-59
2022/02/12 06:54:46;;;;;;;12.65;7.13;;;0.60;99.90;;;;;;5081687;28;20513;-58
2022/02/12 06:57:14;;;;;;;11.95;6.00;;;1.10;99.90;;;;;;5090761;28;20434;-59
2022/02/12 06:59:43;;;;;;;10.55;5.30;;;1.10;99.90;;;;;;5095226;28;20489;-59
2022/02/12 07:02:10;;;;;;;10.02;5.70;;;0.90;99.90;;;;;;5089252;28;20441;-59
2022/02/12 07:04:40;;;;;;;9.95;5.55;;;0.90;99.90;;;;;;5075580;28;20503;-59
2022/02/12 07:07:07;;;;;;;10.00;4.88;;;1.00;99.90;;;;;;5076556;28;20801;-59
2022/02/12 07:09:34;;;;;;;8.52;5.28;;;0.80;99.90;;;;;;5076359;28;20426;-59
2022/02/12 07:12:01;;;;;;;7.85;4.18;;;0.60;99.90;;;;;;5077287;28;20533;-60
2022/02/12 07:14:29;;;;;;;11.60;5.95;;;0.70;99.90;;;;;;5076248;28;20430;-61
2022/02/12 07:58:24;;;;;;;9.40;4.10;;;1.90;95.00;;;;;;5049296;28;20563;-60
2022/02/12 08:00:51;;;;;;;10.45;4.50;;;2.30;99.90;;;;;;5061893;28;20457;-60
2022/02/12 08:03:17;;;;;;;9.70;4.53;;;2.00;99.90;;;;;;5060263;28;20736;-59
2022/02/12 08:05:45;;;;;;;7.93;4.43;;;1.90;99.90;;;;;;5075614;28;20423;-59
2022/02/12 08:08:11;;;;;;;8.15;4.90;;;2.10;99.90;;;;;;5071848;28;20610;-60
2022/02/12 08:13:25;;;;;;;4.43;3.55;;;3.30;82.50;;;;;;5065147;28;20404;-61
2022/02/12 08:15:52;;;;;;;7.22;4.25;;;3.30;79.30;;;;;;5064351;28;20424;-60
2022/02/12 08:18:19;;;;;;;5.82;3.75;;;3.10;51.70;;;;;;5094757;28;20491;-60
2022/02/12 08:20:46;;;;;;;7.15;4.00;;;3.30;75.40;;;;;;5073595;28;20801;-60
2022/02/12 08:23:14;;;;;;;11.23;4.82;;;3.20;47.20;;;;;;5073274;28;20424;-59
2022/02/12 08:25:41;;;;;;;9.35;5.07;;;2.90;57.60;;;;;;5058954;28;20784;-59
2022/02/12 08:28:08;;;;;;;7.88;4.43;;;2.50;33.20;;;;;;5057130;28;20487;-59
2022/02/12 08:30:36;;;;;;;6.78;3.58;;;2.70;82.30;;;;;;5060065;28;20500;-59
2022/02/12 08:33:03;;;;;;;7.20;4.18;;;3.00;95.30;;;;;;5054537;28;20425;-59
2022/02/12 08:35:30;;;;;;;8.45;4.80;;;3.20;92.70;;;;;;5072161;28;20435;-59
2022/02/12 08:37:58;;;;;;;8.85;4.57;;;3.70;73.50;;;;;;5072500;28;20439;-59
2022/02/12 08:40:25;;;;;;;7.40;3.03;;;3.70;49.80;;;;;;5067232;28;20841;-59
2022/02/12 08:42:53;;;;;;;7.45;4.28;;;3.80;30.10;;;;;;5055762;28;20731;-59
2022/02/12 08:45:20;;;;;;;7.68;4.68;;;3.90;1.00;;;;;;5048536;28;20433;-59
2022/02/12 08:47:49;;;;;;;7.68;3.83;;;3.60;1.00;;;;;;5057326;28;20416;-59
2022/02/12 08:50:16;;;;;;;7.55;3.00;;;3.60;1.00;;;;;;5064561;28;20433;-59
2022/02/12 08:52:44;;;;;;;9.77;4.75;;;3.70;1.00;;;;;;5068465;28;22715;-59
2022/02/12 08:55:11;;;;;;;6.60;3.72;;;3.90;1.00;;;;;;5061711;28;20714;-60
2022/02/12 08:57:38;;;;;;;5.68;4.63;;;3.60;1.00;;;;;;5059044;28;20513;-59
2022/02/12 09:00:07;;;;;;;5.95;3.97;;;3.20;1.00;;;;;;5071200;28;20509;-59
2022/02/12 09:02:34;;;;;;;8.05;4.35;;;3.10;1.00;;;;;;5060922;28;20463;-59
2022/02/12 09:05:04;;;;;;;6.53;3.70;;;3.20;1.00;;;;;;5072738;28;20427;-59
2022/02/12 09:07:31;;;;;;;9.15;4.95;;;2.90;1.00;;;;;;5061959;28;20419;-59
2022/02/12 09:10:00;;;;;;;6.35;4.65;;;2.70;1.00;;;;;;5065069;28;20860;-59
2022/02/12 09:12:27;;;;;;;8.10;4.30;;;2.80;1.00;;;;;;5053414;28;20721;-59
2022/02/12 09:14:54;;;;;;;6.30;3.72;;;3.10;1.00;;;;;;5069082;28;20854;-59
2022/02/12 09:17:21;;;;;;;6.10;3.83;;;3.40;1.00;;;;;;5073763;28;20497;-59
2022/02/12 09:19:48;;;;;;;5.22;3.33;;;3.50;1.00;;;;;;5062436;28;20730;-59
2022/02/12 09:22:17;;;;;;;6.28;3.50;;;3.90;1.00;;;;;;5065168;28;20922;-59
2022/02/12 09:24:44;;;;;;;7.35;3.80;;;3.80;1.00;;;;;;5053400;28;21058;-58
2022/02/12 09:27:11;;;;;;;5.50;2.67;;;4.00;1.00;;;;;;5064417;28;20423;-59
2022/02/12 09:29:39;;;;;;;3.80;2.10;;;4.30;1.00;;;;;;5061068;28;20435;-58
2022/02/12 09:32:06;;;;;;;5.57;2.50;;;4.40;1.00;;;;;;5071113;28;20493;-58
2022/02/12 09:34:33;;;;;;;6.60;2.90;;;4.60;1.00;;;;;;5062591;28;20865;-58
2022/02/12 09:37:00;;;;;;;7.15;3.50;;;4.70;99.90;;;;;;5051110;28;20895;-58
2022/02/12 09:39:29;;;;;;;5.70;2.72;;;4.70;72.10;;;;;;5051340;28;20464;-58
2022/02/12 09:41:57;;;;;;;4.63;2.67;;;4.30;24.40;;;;;;5052928;28;20522;-58
2022/02/12 09:44:24;;;;;;;5.72;3.80;;;4.30;1.00;;;;;;5066374;28;20431;-58
2022/02/12 09:47:25;;;;;;;6.50;2.90;;;4.20;95.20;;;;;;5058805;28;20419;-58
2022/02/12 09:49:56;;;;;;;5.43;2.30;;;4.10;61.70;;;;;;5058632;28;20501;-58
2022/02/12 09:52:28;;;;;;;4.97;2.13;;;4.00;99.90;;;;;;5051508;28;20515;-59
2022/02/12 09:54:56;;;;;;;6.00;2.80;;;4.00;1.00;;;;;;5061240;28;20555;-58
2022/02/12 09:57:26;;;;;;;4.63;2.40;;;4.10;1.00;;;;;;5074770;28;20516;-59
2022/02/12 09:59:58;;;;;;;4.00;2.10;;;4.20;1.00;;;;;;5066965;28;20439;-58
2022/02/12 10:02:25;;;;;;;6.63;2.80;;;4.50;1.00;;;;;;5064115;28;20521;-58
2022/02/12 10:05:20;;;;;;;5.35;2.47;;;4.40;1.00;;;;;;5069071;28;20533;-57
2022/02/12 10:07:48;;;;;;;5.05;3.05;;;4.60;99.90;;;;;;5066229;28;20424;-58
2022/02/12 10:10:17;;;;;;;4.13;2.20;;;4.70;99.90;;;;;;5062975;28;20548;-57
2022/02/12 10:12:44;;;;;;;5.70;2.80;;;4.70;1.00;;;;;;5060013;28;20429;-58
2022/02/12 10:15:13;;;;;;;7.13;2.58;;;4.90;1.00;;;;;;5053554;28;20460;-58
2022/02/12 10:17:54;;;;;;;5.15;2.20;;;5.10;99.90;;;;;;5064894;28;20467;-58
2022/02/12 10:20:29;;;;;;;4.53;2.30;;;4.90;99.90;;;;;;5057405;28;20499;-57
2022/02/12 10:23:07;;;;;;;8.75;4.43;;;4.80;1.00;;;;;;5059464;28;20766;-58
2022/02/12 10:25:37;;;;;;;6.65;3.30;;;4.70;99.90;;;;;;5062066;28;20424;-57
2022/02/12 10:28:05;;;;;;;5.25;2.30;;;5.00;99.90;;;;;;5070830;28;21022;-57
2022/02/12 10:30:33;;;;;;;3.58;1.70;;;5.30;99.90;;;;;;5067041;28;20471;-57
2022/02/12 10:33:02;;;;;;;2.90;1.20;;;5.50;99.90;;;;;;5077981;28;20489;-58
2022/02/12 10:35:31;;;;;;;4.38;1.20;;;5.50;99.90;;;;;;5064606;28;20453;-57
2022/02/12 10:38:00;;;;;;;4.50;1.40;;;5.80;19.70;;;;;;5068597;28;20471;-58
2022/02/12 10:40:28;;;;;;;1.90;1.20;;;5.80;1.00;;;;;;5056261;28;20439;-58
2022/02/12 10:42:56;;;;;;;2.88;1.23;;;5.80;1.00;;;;;;5063448;28;20427;-59
2022/02/12 10:45:26;;;;;;;4.03;1.10;;;5.60;1.00;;;;;;5055674;28;20520;-59
2022/02/12 10:47:54;;;;;;;2.80;1.00;;;5.60;1.00;;;;;;5070408;28;20733;-59
2022/02/12 10:50:26;;;;;;;3.40;1.10;;;5.50;99.90;;;;;;5067254;28;20439;-59
2022/02/12 10:52:56;;;;;;;2.70;0.90;;;5.50;99.90;;;;;;5065892;28;20486;-59
2022/02/12 10:55:31;;;;;;;1.60;1.10;;;5.50;99.90;;;;;;5060966;28;20431;-58
2022/02/12 10:58:04;;;;;;;2.80;0.90;;;5.50;99.90;;;;;;5074302;28;20869;-58
2022/02/12 11:00:33;;;;;;;1.90;1.00;;;5.10;99.90;;;;;;5065489;28;20423;-59
2022/02/12 11:03:04;;;;;;;3.55;1.00;;;5.30;99.90;;;;;;5070205;28;20454;-58
2022/02/12 11:05:33;;;;;;;3.08;1.20;;;5.60;99.90;;;;;;5068103;28;20493;-59
2022/02/12 11:08:00;;;;;;;1.90;1.00;;;5.50;99.90;;;;;;5070983;28;20852;-59
2022/02/12 11:10:28;;;;;;;4.97;1.20;;;5.70;99.90;;;;;;5061668;28;20718;-59
2022/02/12 11:12:57;;;;;;;1.90;1.17;;;5.50;99.90;;;;;;5067449;28;20522;-59
2022/02/12 11:15:27;;;;;;;2.83;1.00;;;5.60;99.90;;;;;;5069687;28;20432;-59
2022/02/12 11:17:58;;;;;;;3.20;1.10;;;5.70;99.90;;;;;;5072298;28;20428;-59
2022/02/12 11:20:27;;;;;;;3.63;1.00;;;5.90;99.90;;;;;;5074191;28;20496;-58
2022/02/12 11:23:27;;;;;;;2.40;1.10;;;5.90;99.90;;;;;;5070225;28;20427;-59
2022/02/12 11:25:55;;;;;;;2.63;1.05;;;6.10;99.90;;;;;;5073896;28;20522;-59
2022/02/12 11:28:28;;;;;;;3.30;1.00;;;6.40;99.20;;;;;;5067048;28;20451;-59
2022/02/12 11:31:18;;;;;;;2.80;0.90;;;6.40;51.00;;;;;;5071794;28;20428;-59
2022/02/12 11:34:13;;;;;;;1.92;0.90;;;6.40;12.20;;;;;;5063564;28;20435;-60
2022/02/12 11:36:44;;;;;;;2.38;0.90;;;6.40;1.00;;;;;;5032433;28;20512;-61
2022/02/12 11:39:13;;;;;;;6.43;2.77;;;6.40;1.00;;;;;;5056918;28;20503;-60
2022/02/12 11:41:41;;;;;;;3.33;1.98;;;6.30;1.00;;;;;;5058628;28;20975;-60
2022/02/12 11:44:08;;;;;;;1.95;0.80;;;6.30;1.00;;;;;;5053320;28;20440;-60
2022/02/12 11:47:05;;;;;;;2.60;0.98;;;6.30;1.00;;;;;;5066887;28;20420;-59
2022/02/12 11:49:33;;;;;;;1.57;0.80;;;6.40;1.00;;;;;;5066363;28;20892;-61
2022/02/12 11:52:05;;;;;;;2.50;0.80;;;6.50;1.00;;;;;;5068186;28;20495;-62
2022/02/12 11:54:49;;;;;;;1.50;0.90;;;6.60;1.00;;;;;;5067164;28;20870;-61
2022/02/12 11:57:17;;;;;;;2.90;0.80;;;6.60;1.00;;;;;;5067045;28;20531;-62
2022/02/12 11:59:44;;;;;;;3.03;1.60;;;6.80;1.00;;;;;;5057238;28;20471;-60
2022/02/12 12:02:39;;;;;;;19.00;13.00;;;6.80;1.00;;;;;;5063526;28;20842;-60
2022/02/12 12:05:13;;;;;;;3.47;1.20;;;7.00;1.00;;;;;;5061018;28;20435;-62
2022/02/12 12:08:11;;;;;;;1.80;1.10;;;7.30;1.00;;;;;;5059614;28;20512;-61
2022/02/12 12:10:41;;;;;;;2.85;0.90;;;7.60;1.00;;;;;;5059335;28;20485;-60
2022/02/12 12:13:44;;;;;;;2.28;0.90;;;7.50;1.00;;;;;;5059695;28;20452;-61
2022/02/12 12:16:24;;;;;;;2.28;0.90;;;7.50;1.00;;;;;;5066897;28;20436;-63
2022/02/12 12:18:53;;;;;;;2.15;1.00;;;7.50;1.00;;;;;;5072527;28;20878;-61
2022/02/12 12:21:20;;;;;;;2.95;1.10;;;7.40;1.00;;;;;;5072523;28;20537;-61
2022/02/12 12:23:56;;;;;;;3.13;1.25;;;7.50;1.00;;;;;;5070152;28;20501;-62
2022/02/12 12:26:41;;;;;;;2.10;0.85;;;7.80;1.00;;;;;;5067241;28;20494;-62
2022/02/12 12:31:54;;;;;;;1.20;0.73;;;8.50;1.00;;;;;;5067458;28;20430;-61
2022/02/12 12:34:22;;;;;;;4.20;0.80;;;8.60;1.00;;;;;;5069940;28;20501;-62
2022/02/12 12:36:49;;;;;;;2.25;0.80;;;8.60;1.00;;;;;;5070888;28;20419;-63
2022/02/12 12:39:16;;;;;;;2.00;0.70;;;8.70;1.00;;;;;;5067875;28;20427;-61
2022/02/12 12:41:45;;;;;;;1.35;0.70;;;8.30;1.00;;;;;;5071055;28;20512;-64
2022/02/12 12:44:13;;;;;;;1.00;0.70;;;8.10;1.00;;;;;;5072450;28;20538;-63
2022/02/12 12:46:44;;;;;;;2.30;0.60;;;8.00;1.00;;;;;;5066627;28;20433;-63
2022/02/12 12:49:29;;;;;;;1.00;0.60;;;8.10;1.00;;;;;;5070385;28;20426;-63
2022/02/12 12:51:57;;;;;;;2.10;0.57;;;8.10;1.00;;;;;;5066832;28;20438;-62
2022/02/12 12:54:31;;;;;;;0.90;0.60;;;8.00;1.00;;;;;;5071780;28;20491;-62
2022/02/12 12:56:59;;;;;;;1.40;0.50;;;8.10;1.00;;;;;;5068781;28;20535;-63
2022/02/12 12:59:27;;;;;;;1.10;0.50;;;8.20;1.00;;;;;;5068050;28;20542;-63
2022/02/12 13:01:59;;;;;;;0.90;0.50;;;8.10;1.00;;;;;;5066700;28;20518;-62
2022/02/12 13:04:28;;;;;;;1.10;0.60;;;8.10;1.00;;;;;;5066857;28;20512;-62
2022/02/12 13:06:56;;;;;;;1.10;0.50;;;8.20;1.00;;;;;;5070120;28;20481;-62
2022/02/12 13:09:24;;;;;;;2.00;0.60;;;8.10;1.00;;;;;;5069944;28;20423;-63
2022/02/12 13:11:51;;;;;;;2.53;0.70;;;8.20;1.00;;;;;;5066704;28;20441;-63
2022/02/12 13:14:18;;;;;;;1.80;0.50;;;8.20;1.00;;;;;;5061768;28;20500;-62
2022/02/12 13:16:48;;;;;;;1.20;0.50;;;8.00;1.00;;;;;;5065780;28;20467;-63
2022/02/12 13:19:16;;;;;;;2.00;0.50;;;7.90;1.00;;;;;;5067634;28;20889;-63
2022/02/12 13:21:52;;;;;;;1.40;0.50;;;8.00;1.00;;;;;;5056769;28;20449;-63
2022/02/12 13:24:20;;;;;;;1.77;0.50;;;8.10;1.00;;;;;;5064406;28;20442;-62
2022/02/12 13:26:48;;;;;;;1.05;0.50;;;8.00;1.00;;;;;;5069809;28;20508;-64
2022/02/12 13:29:19;;;;;;;0.80;0.47;;;8.20;1.00;;;;;;5063349;28;20437;-62
2022/02/12 13:31:51;;;;;;;0.80;0.40;;;8.30;1.00;;;;;;5061911;28;21077;-62
2022/02/12 13:34:19;;;;;;;1.60;0.50;;;8.50;1.00;;;;;;5064631;28;21860;-62
2022/02/12 13:36:48;;;;;;;1.40;0.50;;;8.60;1.00;;;;;;5069297;28;20423;-62
2022/02/12 13:39:20;;;;;;;0.80;0.50;;;8.20;1.00;;;;;;5069373;28;20431;-62
2022/02/12 13:41:48;;;;;;;1.80;0.50;;;8.40;1.00;;;;;;5073850;28;20463;-62
2022/02/12 13:44:27;;;;;;;0.75;0.50;;;8.50;1.00;;;;;;5068366;28;20461;-63
2022/02/12 13:46:54;;;;;;;0.80;0.40;;;8.10;1.00;;;;;;5062273;28;20524;-62
2022/02/12 13:49:25;;;;;;;0.80;0.40;;;8.10;1.00;;;;;;5070509;28;20793;-61
2022/02/12 13:51:57;;;;;;;0.90;0.60;;;8.10;1.00;;;;;;5073083;28;20758;-62
2022/02/12 13:54:27;;;;;;;1.02;0.60;;;8.00;1.00;;;;;;5072396;28;20803;-62
2022/02/12 13:56:58;;;;;;;1.70;0.60;;;7.80;1.00;;;;;;5082142;28;20519;-63
2022/02/12 13:59:25;;;;;;;0.93;0.60;;;7.80;1.00;;;;;;5074218;28;20432;-63